Time;durP1;ratioP1;P1;durP2;ratioP2;P2;SDS_P1;SDS_P2;PMS_P1;PMS_P2;Temp;Humidity;BMP_temperature;BMP_pressure;BME280_temperature;BME280_humidity;BME280_pressure;Samples;Min_cycle;Max_cycle;Signal;HPM_P1;HPM_P2
2021/03/17 00:00:33;;;;;;;10.78;8.03;;;;;;;12.83;52.97;98764.28;1704958;83;21206;-75
2021/03/17 00:03:19;;;;;;;9.75;8.30;;;;;;;12.83;52.95;98759.48;1696825;83;21177;-74
2021/03/17 00:06:05;;;;;;;9.48;8.30;;;;;;;12.83;52.95;98756.81;1708295;83;21621;-74
2021/03/17 00:08:51;;;;;;;10.55;8.35;;;;;;;12.82;52.95;98762.63;1706030;83;21176;-74
2021/03/17 00:11:37;;;;;;;8.30;7.40;;;;;;;12.82;52.92;98759.16;1709878;83;21208;-74
2021/03/17 00:14:23;;;;;;;10.80;8.33;;;;;;;12.81;52.92;98760.20;1711055;83;21178;-75
2021/03/17 00:17:09;;;;;;;9.70;7.60;;;;;;;12.80;52.91;98755.36;1705263;83;21086;-75
2021/03/17 00:19:55;;;;;;;9.70;8.20;;;;;;;12.79;52.90;98757.21;1711183;83;21136;-74
2021/03/17 00:22:43;;;;;;;10.82;8.30;;;;;;;12.78;52.88;98750.75;1701209;83;21199;-76
2021/03/17 00:25:37;;;;;;;9.08;7.97;;;;;;;12.78;52.90;98745.42;1697529;83;21624;-75
2021/03/17 00:28:24;;;;;;;9.58;7.83;;;;;;;12.77;52.88;98747.27;1691547;83;21522;-76
2021/03/17 00:31:10;;;;;;;8.08;7.35;;;;;;;12.77;52.90;98749.94;1668918;85;21673;-76
2021/03/17 00:33:56;;;;;;;9.28;7.47;;;;;;;12.76;52.89;98748.28;1636049;87;21174;-76
2021/03/17 00:36:43;;;;;;;9.25;8.00;;;;;;;12.76;52.86;98753.61;1681944;83;21160;-76
2021/03/17 00:39:29;;;;;;;9.65;8.00;;;;;;;12.76;52.87;98748.80;1687578;83;22009;-75
2021/03/17 00:42:15;;;;;;;9.00;7.30;;;;;;;12.74;52.88;98749.01;1698537;84;21235;-73
2021/03/17 00:45:02;;;;;;;9.55;7.42;;;;;;;12.74;52.87;98747.67;1693036;84;21164;-74
2021/03/17 00:47:47;;;;;;;8.90;7.70;;;;;;;12.74;52.87;98746.34;1703318;83;21152;-74
2021/03/17 00:50:17;;;;;;;8.50;7.70;;;;;;;12.73;52.86;98745.24;1687143;84;21147;-73
2021/03/17 00:52:44;;;;;;;10.35;7.10;;;;;;;12.74;52.83;98750.86;1698856;84;21221;-73
2021/03/17 00:55:12;;;;;;;8.93;7.90;;;;;;;12.75;52.82;98751.18;1685599;83;21167;-73
2021/03/17 00:57:58;;;;;;;9.80;7.25;;;;;;;12.75;52.81;98760.51;1683983;84;21139;-73
2021/03/17 01:00:26;;;;;;;8.65;7.75;;;;;;;12.74;52.79;98754.34;1700778;83;21112;-75
2021/03/17 01:02:53;;;;;;;8.68;7.17;;;;;;;12.75;52.76;98755.18;1660905;85;21156;-74
2021/03/17 01:05:21;;;;;;;8.25;7.17;;;;;;;12.75;52.74;98750.66;1654471;85;21251;-73
2021/03/17 01:07:49;;;;;;;7.67;6.87;;;;;;;12.76;52.70;98748.80;1667657;85;21202;-73
2021/03/17 01:10:21;;;;;;;8.55;7.17;;;;;;;12.76;52.67;98745.63;1663658;85;21219;-74
2021/03/17 01:12:48;;;;;;;9.43;7.22;;;;;;;12.76;52.65;98738.95;1650361;85;21207;-76
2021/03/17 01:15:19;;;;;;;8.03;7.22;;;;;;;12.76;52.62;98741.63;1695012;83;21565;-75
2021/03/17 01:17:47;;;;;;;7.92;7.10;;;;;;;12.76;52.60;98738.95;1688566;84;21346;-75
2021/03/17 01:20:17;;;;;;;8.83;7.58;;;;;;;12.77;52.58;98735.28;1693114;84;21165;-75
2021/03/17 01:22:46;;;;;;;7.30;6.60;;;;;;;12.77;52.56;98733.95;1634334;87;21174;-75
2021/03/17 01:25:20;;;;;;;7.12;6.37;;;;;;;12.77;52.53;98733.14;1672653;84;21207;-75
2021/03/17 01:27:47;;;;;;;8.13;7.35;;;;;;;12.76;52.53;98729.63;1676332;84;21179;-73
2021/03/17 01:30:17;;;;;;;7.80;7.10;;;;;;;12.71;52.52;98725.95;1681480;83;21430;-76
2021/03/17 01:32:46;;;;;;;7.80;7.10;;;;;;;12.76;52.51;98733.63;1647057;85;21199;-73
2021/03/17 01:35:16;;;;;;;7.95;6.70;;;;;;;12.75;52.51;98733.34;1645447;85;21247;-73
2021/03/17 01:37:47;;;;;;;8.08;6.90;;;;;;;12.76;52.50;98736.30;1682972;84;21171;-71
2021/03/17 01:40:17;;;;;;;7.47;6.80;;;;;;;12.76;52.46;98735.48;1676363;84;21149;-72
2021/03/17 01:42:46;;;;;;;7.35;6.60;;;;;;;12.76;52.43;98740.81;1681343;84;22229;-75
2021/03/17 01:45:15;;;;;;;7.35;6.62;;;;;;;12.76;52.45;98736.81;1679374;84;21686;-74
2021/03/17 01:47:44;;;;;;;7.67;6.58;;;;;;;12.75;52.43;98736.00;1690727;84;21160;-72
2021/03/17 01:50:16;;;;;;;7.05;6.45;;;;;;;12.75;52.40;98730.67;1684761;84;21134;-75
2021/03/17 01:52:45;;;;;;;7.05;6.03;;;;;;;12.75;52.39;98728.01;1698637;84;21165;-74
2021/03/17 01:55:13;;;;;;;8.30;6.87;;;;;;;12.75;52.40;98724.02;1700342;84;21657;-73
2021/03/17 01:57:40;;;;;;;7.92;6.47;;;;;;;12.74;52.39;98727.69;1688036;84;21668;-74
2021/03/17 02:00:10;;;;;;;7.10;6.33;;;;;;;12.74;52.39;98722.36;1691823;84;21270;-73
2021/03/17 02:02:43;;;;;;;7.22;6.53;;;;;;;12.74;52.38;98727.69;1702399;83;21206;-73
2021/03/17 02:05:13;;;;;;;6.33;5.72;;;;;;;12.73;52.37;98719.41;1696936;84;21152;-72
2021/03/17 02:07:40;;;;;;;7.50;6.80;;;;;;;12.73;52.36;98723.40;1700348;84;21377;-74
2021/03/17 02:10:12;;;;;;;8.03;6.47;;;;;;;12.72;52.34;98724.41;1679494;84;21235;-75
2021/03/17 02:13:03;;;;;;;7.30;6.60;;;;;;;12.72;52.35;98718.27;1689515;83;21200;-73
2021/03/17 02:15:49;;;;;;;;;;;;;;;12.73;52.33;98721.26;1696040;84;21148;-73
2021/03/17 02:18:37;;;;;;;7.33;6.10;;;;;;;12.71;52.34;98710.80;1665898;84;20277;-72
2021/03/17 02:21:16;;;;;;;6.67;5.90;;;;;;;12.64;52.47;98718.49;1685792;84;21437;-72
2021/03/17 02:24:22;;;;;;;7.22;6.53;;;;;;;12.62;52.47;98724.55;1686480;84;21199;-72
2021/03/17 02:27:15;;;;;;;7.67;6.75;;;;;;;12.62;52.47;98724.02;1694601;84;21190;-73
2021/03/17 02:30:20;;;;;;;8.20;6.37;;;;;;;12.61;52.50;98729.03;1700491;83;21168;-73
2021/03/17 02:36:37;;;;;;;7.95;6.17;;;;;;;12.61;52.54;98721.03;1810832;77;28185;-75
2021/03/17 02:39:38;;;;;;;9.50;6.75;;;;;;;12.55;52.55;98729.86;1796134;77;21158;-75
2021/03/17 02:42:27;;;;;;;6.72;6.12;;;;;;;12.53;52.59;98721.25;1791553;77;22718;-74
2021/03/17 02:45:11;;;;;;;7.67;6.95;;;;;;;12.52;52.60;98719.63;1778522;78;21835;-75
2021/03/17 02:47:47;;;;;;;6.40;5.80;;;;;;;12.51;52.61;98729.97;1773593;78;21190;-73
2021/03/17 02:50:15;;;;;;;8.28;6.80;;;;;;;12.51;52.61;98720.64;1776776;78;21162;-74
2021/03/17 02:52:44;;;;;;;6.80;6.10;;;;;;;12.51;52.61;98728.11;1768952;78;21674;-74
2021/03/17 02:55:13;;;;;;;6.83;6.05;;;;;;;12.53;52.58;98719.92;1769303;78;21445;-73
2021/03/17 02:57:42;;;;;;;7.62;6.62;;;;;;;12.52;52.56;98715.11;1770383;79;21169;-75
2021/03/17 03:00:13;;;;;;;6.95;6.25;;;;;;;12.53;52.54;98714.07;1748091;79;21623;-74
2021/03/17 03:02:44;;;;;;;7.22;6.28;;;;;;;12.56;52.52;98714.19;1782217;78;21193;-73
2021/03/17 03:05:14;;;;;;;7.55;5.53;;;;;;;12.56;52.47;98717.67;1784830;78;21593;-73
2021/03/17 03:07:43;;;;;;;6.53;5.85;;;;;;;12.56;52.46;98716.86;1775813;78;21730;-74
2021/03/17 03:10:11;;;;;;;6.30;5.78;;;;;;;12.57;52.43;98719.81;1788684;78;21186;-74
2021/03/17 03:12:38;;;;;;;6.70;5.97;;;;;;;12.58;52.39;98712.14;1779084;78;21509;-74
2021/03/17 03:15:09;;;;;;;6.60;5.87;;;;;;;12.58;52.38;98707.63;1793858;78;21163;-75
2021/03/17 03:17:37;;;;;;;6.72;5.17;;;;;;;12.59;52.35;98719.94;1775504;78;21175;-74
2021/03/17 03:20:09;;;;;;;6.83;6.03;;;;;;;12.59;52.34;98715.94;1794774;77;21365;-75
2021/03/17 03:22:39;;;;;;;6.00;5.15;;;;;;;12.59;52.31;98709.77;1797004;78;21195;-74
2021/03/17 03:25:08;;;;;;;6.55;5.95;;;;;;;12.59;52.29;98717.27;1805934;78;21595;-74
2021/03/17 03:27:36;;;;;;;6.25;5.65;;;;;;;12.60;52.28;98720.75;1791109;78;21613;-74
2021/03/17 03:30:12;;;;;;;6.12;5.53;;;;;;;12.59;52.26;98717.27;1751746;80;21155;-74
2021/03/17 03:32:42;;;;;;;6.60;5.75;;;;;;;12.60;52.23;98722.08;1807496;77;22348;-74
2021/03/17 03:35:12;;;;;;;6.47;5.60;;;;;;;12.60;52.21;98712.75;1799165;77;21242;-75
2021/03/17 03:37:39;;;;;;;5.50;4.95;;;;;;;12.58;52.21;98714.28;1764608;80;21232;-73
2021/03/17 03:40:22;;;;;;;6.55;5.75;;;;;;;12.59;52.20;98724.42;1735039;81;21176;-73
2021/03/17 03:42:52;;;;;;;5.92;5.42;;;;;;;12.59;52.18;98710.61;1744040;80;21164;-73
2021/03/17 03:45:22;;;;;;;6.40;5.80;;;;;;;12.58;52.16;98714.28;1736697;80;21494;-74
2021/03/17 03:47:50;;;;;;;6.47;5.55;;;;;;;12.58;52.16;98711.62;1752855;80;21668;-74
2021/03/17 03:50:20;;;;;;;6.30;5.78;;;;;;;12.57;52.14;98711.33;1767890;80;21169;-73
2021/03/17 03:53:34;;;;;;;6.08;5.47;;;;;;;12.58;52.12;98711.62;1767907;80;21101;-74
2021/03/17 03:56:10;;;;;;;5.78;5.28;;;;;;;12.58;52.09;98714.28;1752914;80;21153;-73
2021/03/17 03:58:49;;;;;;;6.37;4.90;;;;;;;12.55;52.11;98710.69;1758920;80;21454;-74
2021/03/17 04:01:22;;;;;;;6.37;5.67;;;;;;;12.54;52.13;98706.92;1749295;80;21187;-73
2021/03/17 04:04:01;;;;;;;7.20;6.58;;;;;;;12.53;52.12;98706.08;1764940;80;21617;-74
2021/03/17 04:06:29;;;;;;;6.58;5.80;;;;;;;12.52;52.12;98698.31;1771278;80;21157;-72
2021/03/17 04:08:58;;;;;;;5.92;5.37;;;;;;;12.53;52.16;98711.92;1761074;80;21180;-73
2021/03/17 04:11:25;;;;;;;5.53;5.10;;;;;;;12.52;52.14;98702.31;1769953;80;22139;-73
2021/03/17 04:13:57;;;;;;;7.67;5.90;;;;;;;12.51;52.11;98698.81;1769794;80;21181;-73
2021/03/17 04:16:24;;;;;;;6.78;6.08;;;;;;;12.51;52.12;98697.47;1777828;80;21666;-73
2021/03/17 04:18:56;;;;;;;7.00;5.78;;;;;;;12.52;52.10;98703.65;1756289;80;21640;-74
2021/03/17 04:21:26;;;;;;;6.83;5.78;;;;;;;12.52;52.07;98703.13;1761539;80;21208;-73
2021/03/17 04:23:57;;;;;;;6.72;5.87;;;;;;;12.53;52.06;98694.61;1739329;80;21211;-73
2021/03/17 04:26:24;;;;;;;6.58;5.28;;;;;;;12.53;52.05;98697.28;1765513;80;21256;-74
2021/03/17 04:28:52;;;;;;;7.50;5.87;;;;;;;12.51;52.05;98697.47;1761585;80;21201;-73
2021/03/17 04:31:19;;;;;;;6.15;5.53;;;;;;;12.53;52.03;98699.94;1759078;80;21717;-73
2021/03/17 04:33:47;;;;;;;6.03;5.45;;;;;;;12.52;52.04;98696.47;1738797;80;21198;-72
2021/03/17 04:36:15;;;;;;;6.20;5.60;;;;;;;12.53;52.00;98695.94;1762423;80;21332;-73
2021/03/17 04:38:42;;;;;;;6.15;5.47;;;;;;;12.53;52.02;98694.61;1764350;80;21213;-74
2021/03/17 04:41:10;;;;;;;7.72;6.15;;;;;;;12.53;51.97;98687.95;1775418;80;21173;-74
2021/03/17 04:43:39;;;;;;;6.37;5.50;;;;;;;12.53;51.95;98691.95;1755855;80;21165;-76
2021/03/17 04:46:07;;;;;;;6.33;5.72;;;;;;;12.54;51.95;98692.27;1767954;80;21232;-75
2021/03/17 04:48:35;;;;;;;6.20;5.60;;;;;;;12.54;51.92;98690.94;1762888;80;21365;-75
2021/03/17 04:51:03;;;;;;;7.25;5.75;;;;;;;12.53;51.92;98686.09;1753215;80;21153;-74
2021/03/17 04:53:32;;;;;;;5.95;5.42;;;;;;;12.53;51.91;98690.09;1782215;80;21196;-73
2021/03/17 04:56:06;;;;;;;5.80;5.03;;;;;;;12.54;51.90;98688.27;1736953;80;21153;-74
2021/03/17 04:58:35;;;;;;;6.70;5.53;;;;;;;12.54;51.89;98690.94;1778351;80;21169;-73
2021/03/17 05:01:07;;;;;;;5.72;5.17;;;;;;;12.53;51.84;98690.09;1781002;80;21395;-75
2021/03/17 05:03:36;;;;;;;6.92;5.12;;;;;;;12.53;51.87;98682.63;1769837;79;21106;-74
2021/03/17 05:06:04;;;;;;;5.83;5.30;;;;;;;12.54;51.86;98680.28;1770359;80;21628;-75
2021/03/17 05:08:32;;;;;;;6.22;5.60;;;;;;;12.53;51.84;98682.63;1778296;80;21189;-74
2021/03/17 05:11:00;;;;;;;5.37;4.80;;;;;;;12.53;51.83;98680.77;1778657;80;21157;-76
2021/03/17 05:13:27;;;;;;;5.85;5.30;;;;;;;12.54;51.81;98674.95;1770097;80;21356;-78
2021/03/17 05:15:55;;;;;;;5.58;5.08;;;;;;;12.53;51.81;98678.11;1775402;80;21197;-77
2021/03/17 05:18:23;;;;;;;6.00;5.40;;;;;;;12.54;51.77;98677.62;1780806;80;21166;-76
2021/03/17 05:20:51;;;;;;;6.20;5.22;;;;;;;12.54;51.79;98680.28;1775358;80;21194;-76
2021/03/17 05:23:19;;;;;;;5.72;5.03;;;;;;;12.53;51.80;98675.97;1777667;80;21196;-73
2021/03/17 05:25:47;;;;;;;6.03;5.28;;;;;;;12.53;51.80;98678.62;1761777;80;21630;-75
2021/03/17 05:28:17;;;;;;;7.33;6.50;;;;;;;12.55;51.75;98677.91;1775300;80;21859;-74
2021/03/17 05:30:48;;;;;;;5.28;4.78;;;;;;;12.56;51.75;98687.55;1774963;80;21693;-74
2021/03/17 05:33:16;;;;;;;6.00;5.28;;;;;;;12.56;51.74;98688.88;1757810;80;21204;-74
2021/03/17 05:35:44;;;;;;;7.10;5.65;;;;;;;12.55;51.75;98687.23;1767310;80;21154;-75
2021/03/17 05:38:12;;;;;;;5.47;4.95;;;;;;;12.57;51.74;98693.17;1763041;80;21244;-73
2021/03/17 05:40:39;;;;;;;5.05;4.47;;;;;;;12.55;51.73;98688.56;1776762;80;21218;-75
2021/03/17 05:43:08;;;;;;;6.15;5.55;;;;;;;12.56;51.72;98691.03;1764644;80;21200;-74
2021/03/17 05:45:38;;;;;;;7.12;5.17;;;;;;;12.56;51.71;98688.36;1773770;80;21182;-73
2021/03/17 05:48:08;;;;;;;5.42;4.92;;;;;;;12.57;51.67;98691.84;1777796;80;21200;-76
2021/03/17 05:50:36;;;;;;;6.00;4.90;;;;;;;12.57;51.67;98700.67;1776354;80;21220;-75
2021/03/17 05:53:06;;;;;;;6.70;5.45;;;;;;;12.58;51.67;98697.48;1767295;80;21144;-74
2021/03/17 05:55:35;;;;;;;5.15;4.65;;;;;;;12.58;51.65;98699.63;1777716;80;21165;-76
2021/03/17 05:58:02;;;;;;;6.08;5.08;;;;;;;12.59;51.65;98695.11;1775207;80;21145;-74
2021/03/17 06:00:30;;;;;;;6.00;5.20;;;;;;;12.59;51.64;98701.77;1770648;80;21196;-73
2021/03/17 06:02:59;;;;;;;5.75;5.00;;;;;;;12.59;51.64;98704.44;1770506;80;21208;-75
2021/03/17 06:05:27;;;;;;;5.97;5.25;;;;;;;12.59;51.64;98705.28;1771645;80;21177;-76
2021/03/17 06:08:07;;;;;;;5.70;4.72;;;;;;;12.60;51.62;98708.75;1775129;79;21140;-76
2021/03/17 06:10:35;;;;;;;5.58;4.55;;;;;;;12.60;51.63;98707.42;1775237;79;21145;-76
2021/03/17 06:13:11;;;;;;;8.03;5.28;;;;;;;12.59;51.62;98712.43;1773573;80;21229;-75
2021/03/17 06:15:41;;;;;;;5.70;5.10;;;;;;;12.59;51.63;98701.77;1773608;80;22288;-75
2021/03/17 06:18:22;;;;;;;5.30;4.75;;;;;;;12.59;51.62;98697.78;1760500;80;22138;-76
2021/03/17 06:20:50;;;;;;;5.95;4.72;;;;;;;12.60;51.62;98706.09;1775851;80;21129;-76
2021/03/17 06:23:17;;;;;;;5.90;5.30;;;;;;;12.59;51.58;98699.95;1768273;79;21152;-76
2021/03/17 06:25:45;;;;;;;5.58;4.97;;;;;;;12.61;51.61;98698.39;1773182;80;21189;-76
2021/03/17 06:28:12;;;;;;;6.05;5.30;;;;;;;12.61;51.60;98701.05;1765925;79;21589;-75
2021/03/17 06:30:41;;;;;;;5.50;5.00;;;;;;;12.63;51.56;98698.19;1751454;80;21192;-75
2021/03/17 06:33:09;;;;;;;5.35;4.78;;;;;;;12.62;51.54;98701.38;1767499;80;21193;-74
2021/03/17 06:35:37;;;;;;;4.62;4.12;;;;;;;12.62;51.54;98701.38;1766691;80;21677;-74
2021/03/17 06:38:04;;;;;;;5.67;4.83;;;;;;;12.64;51.53;98700.66;1773525;80;21138;-76
2021/03/17 06:40:37;;;;;;;5.10;4.60;;;;;;;12.63;51.49;98700.33;1769793;80;21309;-74
2021/03/17 06:43:10;;;;;;;5.20;4.70;;;;;;;12.65;51.48;98696.13;1757015;80;21208;-75
2021/03/17 06:45:46;;;;;;;6.12;4.97;;;;;;;12.66;51.46;98703.11;1780909;80;21129;-76
2021/03/17 06:48:28;;;;;;;5.85;5.03;;;;;;;12.65;51.46;98692.98;1774608;80;21189;-74
2021/03/17 06:51:10;;;;;;;5.58;4.62;;;;;;;12.65;51.46;98692.14;1753787;80;21184;-75
2021/03/17 06:53:47;;;;;;;5.80;5.12;;;;;;;12.66;53.11;98691.13;1770096;79;21168;-75
2021/03/17 06:56:18;;;;;;;5.45;4.78;;;;;;;12.71;53.46;98697.47;1762172;80;21173;-79
2021/03/17 06:58:50;;;;;;;5.17;4.67;;;;;;;12.76;54.42;98698.98;1777894;80;21165;-79
2021/03/17 07:01:40;;;;;;;7.45;5.70;;;;;;;12.81;54.99;98696.23;1738894;80;21118;-78
2021/03/17 07:04:20;;;;;;;4.95;4.45;;;;;;;12.82;55.05;98693.86;1771608;80;21580;-78
2021/03/17 07:06:49;;;;;;;5.87;4.97;;;;;;;12.82;54.96;98700.52;1767967;80;21361;-74
2021/03/17 07:09:21;;;;;;;7.12;4.78;;;;;;;12.82;54.87;98695.19;1766433;80;21139;-74
2021/03/17 07:11:50;;;;;;;5.37;4.67;;;;;;;12.84;54.74;98690.47;1779906;80;21181;-72
2021/03/17 07:14:25;;;;;;;6.58;5.90;;;;;;;12.85;54.59;98657.47;1764514;79;21157;-79
2021/03/17 07:16:53;;;;;;;7.45;5.58;;;;;;;12.86;54.38;98665.23;1776495;80;21627;-74
2021/03/17 07:19:39;;;;;;;8.38;5.80;;;;;;;12.88;53.91;98656.52;1743215;80;21617;-77
2021/03/17 07:22:12;;;;;;;7.65;6.05;;;;;;;12.91;53.35;98667.30;1762793;80;21212;-79
2021/03/17 07:24:43;;;;;;;9.55;6.33;;;;;;;12.93;52.77;98662.57;1766454;80;21200;-74
2021/03/17 07:27:22;;;;;;;7.67;6.05;;;;;;;12.93;52.29;98655.91;1773863;80;21153;-72
2021/03/17 07:30:04;;;;;;;6.83;6.08;;;;;;;12.95;51.83;98654.66;1770433;80;21179;-81
2021/03/17 07:33:00;;;;;;;6.90;6.12;;;;;;;12.96;51.39;98654.97;1769031;79;21898;-77
2021/03/17 07:35:37;;;;;;;8.43;6.78;;;;;;;12.98;50.98;98649.44;1749611;81;21195;-74
2021/03/17 07:38:12;;;;;;;7.87;6.70;;;;;;;12.98;50.59;98646.77;1735807;81;21156;-74
2021/03/17 07:40:44;;;;;;;7.47;6.65;;;;;;;12.99;50.30;98647.06;1737536;81;21185;-75
2021/03/17 07:43:14;;;;;;;9.08;6.53;;;;;;;13.00;50.04;98648.71;1730764;80;21197;-78
2021/03/17 07:45:42;;;;;;;7.17;6.25;;;;;;;12.94;49.73;98637.04;1742900;81;21160;-81
2021/03/17 07:48:12;;;;;;;7.50;6.20;;;;;;;13.01;49.52;98649.00;1730888;80;21195;-80
2021/03/17 07:50:41;;;;;;;9.18;6.53;;;;;;;13.02;49.34;98649.81;1706148;81;21668;-82
2021/03/17 07:53:19;;;;;;;8.35;6.33;;;;;;;13.03;49.08;98656.80;1766720;80;21582;-83
2021/03/17 07:55:47;;;;;;;11.68;6.65;;;;;;;13.03;48.90;98648.27;1767972;80;21190;-77
2021/03/17 07:58:14;;;;;;;10.50;7.25;;;;;;;13.03;48.70;98664.27;1759926;79;21589;-77
2021/03/17 08:00:42;;;;;;;8.55;6.78;;;;;;;13.03;48.57;98657.61;1746147;80;21165;-75
2021/03/17 08:03:13;;;;;;;8.53;6.22;;;;;;;13.05;48.41;98652.07;1737728;80;21666;-78
2021/03/17 08:05:45;;;;;;;9.58;7.28;;;;;;;13.07;48.31;98648.67;1746168;80;21145;-86
2021/03/17 08:08:13;;;;;;;8.08;6.60;;;;;;;13.06;48.12;98655.86;1712385;83;21178;-74
2021/03/17 08:10:45;;;;;;;7.62;5.87;;;;;;;13.08;48.02;98655.66;1711719;80;22288;-77
2021/03/17 08:13:13;;;;;;;7.72;6.10;;;;;;;13.08;47.86;98643.66;1732666;80;21183;-73
2021/03/17 08:15:45;;;;;;;9.53;6.03;;;;;;;13.07;47.74;98652.16;1754256;81;21442;-76
2021/03/17 08:18:36;;;;;;;9.30;6.55;;;;;;;13.08;47.71;98655.14;1758488;81;21529;-80
2021/03/17 08:21:05;;;;;;;8.98;7.08;;;;;;;13.08;47.61;98652.99;1763728;81;21205;-77
2021/03/17 08:23:43;;;;;;;8.40;6.92;;;;;;;13.07;47.51;98643.34;1755717;81;21808;-74
2021/03/17 08:26:16;;;;;;;11.08;6.47;;;;;;;13.07;47.46;98645.48;1759959;81;21182;-76
2021/03/17 08:28:54;;;;;;;7.35;6.50;;;;;;;13.08;47.36;98644.47;1764654;80;21172;-79
2021/03/17 08:31:42;;;;;;;9.28;6.70;;;;;;;13.08;47.31;98651.14;1761957;81;21100;-79
2021/03/17 08:34:23;;;;;;;8.70;6.75;;;;;;;13.08;47.25;98655.14;1747090;81;21185;-81
2021/03/17 08:36:59;;;;;;;10.08;6.42;;;;;;;13.08;47.26;98650.33;1746746;81;21372;-76
2021/03/17 08:39:36;;;;;;;10.90;6.55;;;;;;;13.08;47.19;98638.33;1743275;81;21190;-74
2021/03/17 08:42:12;;;;;;;9.83;6.95;;;;;;;13.07;47.18;98641.48;1753592;80;21172;-77
2021/03/17 08:44:45;;;;;;;7.53;6.62;;;;;;;13.08;47.12;98648.47;1765066;80;21200;-85
2021/03/17 08:47:42;;;;;;;7.78;6.33;;;;;;;13.08;47.03;98645.80;1773724;80;21194;-78
2021/03/17 08:50:23;;;;;;;10.78;7.20;;;;;;;13.09;46.99;98645.28;1692233;84;21389;-78
2021/03/17 08:52:53;;;;;;;11.57;7.28;;;;;;;13.09;46.96;98642.62;1749956;80;21171;-80
2021/03/17 08:55:39;;;;;;;9.40;6.47;;;;;;;13.08;46.91;98641.80;1769857;79;21180;-77
2021/03/17 08:58:08;;;;;;;10.58;6.35;;;;;;;13.09;46.89;98637.28;1763875;80;21198;-79
2021/03/17 09:01:00;;;;;;;7.97;6.92;;;;;;;13.11;46.85;98653.88;1765596;79;21169;-73
2021/03/17 09:03:44;;;;;;;10.55;7.15;;;;;;;13.10;46.83;98651.74;1765661;79;21391;-75
2021/03/17 09:06:19;;;;;;;9.90;8.20;;;;;;;13.10;46.79;98650.41;1768078;79;21159;-78
2021/03/17 09:09:04;;;;;;;8.20;6.30;;;;;;;13.10;46.77;98648.27;1758141;80;21161;-71
2021/03/17 09:11:37;;;;;;;9.53;6.42;;;;;;;13.11;46.74;98643.22;1759139;79;21123;-89
2021/03/17 09:14:05;;;;;;;;;;;;;;;13.11;46.69;98646.70;1748071;80;21295;-75
2021/03/17 09:16:42;;;;;;;9.65;7.17;;;;;;;13.12;46.68;98647.02;1767699;80;21204;-77
2021/03/17 09:19:14;;;;;;;9.98;6.75;;;;;;;13.06;46.75;98651.86;1767707;80;21183;-76
2021/03/17 09:21:44;;;;;;;10.25;7.53;;;;;;;13.07;46.73;98654.01;1756944;81;21203;-76
2021/03/17 09:24:33;;;;;;;9.57;7.63;;;;;;;13.09;46.68;98654.09;1754450;80;21219;-72
2021/03/17 09:27:06;;;;;;;11.15;7.67;;;;;;;13.12;46.61;98654.20;1755866;80;21211;-75
2021/03/17 09:29:35;;;;;;;8.85;7.00;;;;;;;13.13;46.57;98648.67;1747351;80;21330;-76
2021/03/17 09:32:05;;;;;;;11.48;6.92;;;;;;;13.14;46.53;98646.29;1774817;80;21199;-76
2021/03/17 09:34:35;;;;;;;10.30;6.37;;;;;;;13.15;46.47;98658.61;1773938;80;21081;-72
2021/03/17 09:37:05;;;;;;;9.88;6.85;;;;;;;13.17;46.38;98655.70;1756562;81;21153;-74
2021/03/17 09:39:33;;;;;;;8.00;6.35;;;;;;;13.20;46.33;98662.48;1710201;83;21176;-71
2021/03/17 09:42:01;;;;;;;9.13;7.03;;;;;;;13.21;46.26;98665.44;1750213;79;21371;-72
2021/03/17 09:44:29;;;;;;;10.35;6.22;;;;;;;13.23;46.19;98659.37;1751389;80;21203;-69
2021/03/17 09:46:58;;;;;;;8.88;6.62;;;;;;;13.23;46.13;98664.71;1771527;80;21217;-68
2021/03/17 09:49:26;;;;;;;7.92;6.12;;;;;;;13.24;46.08;98663.70;1743706;80;21183;-70
2021/03/17 09:51:56;;;;;;;7.92;6.42;;;;;;;13.27;46.01;98665.92;1741580;79;21136;-70
2021/03/17 09:54:26;;;;;;;8.23;6.62;;;;;;;13.27;45.98;98665.92;1751070;80;21388;-77
2021/03/17 09:56:58;;;;;;;7.67;6.25;;;;;;;13.27;45.93;98666.77;1724229;80;21140;-76
2021/03/17 09:59:39;;;;;;;7.97;6.50;;;;;;;13.29;45.87;98667.36;1731091;80;21205;-77
2021/03/17 10:05:01;;;;;;;7.67;5.78;;;;;;;13.33;45.82;98658.46;1768471;79;28663;-73
2021/03/17 10:07:32;;;;;;;8.78;6.28;;;;;;;13.31;45.76;98655.19;1723392;82;21630;-71
2021/03/17 10:10:01;;;;;;;7.03;5.80;;;;;;;13.31;45.70;98662.66;1745149;79;21187;-71
2021/03/17 10:12:30;;;;;;;7.17;5.97;;;;;;;13.32;45.69;98664.81;1745469;81;21148;-68
2021/03/17 10:15:08;;;;;;;7.25;5.75;;;;;;;13.34;45.65;98663.55;1747068;81;21202;-70
2021/03/17 10:17:35;;;;;;;9.83;6.03;;;;;;;13.35;45.66;98658.54;1752717;79;21171;-75
2021/03/17 10:20:10;;;;;;;8.65;6.03;;;;;;;13.36;45.58;98652.68;1759437;81;21216;-73
2021/03/17 10:22:38;;;;;;;9.73;5.87;;;;;;;13.38;45.59;98650.62;1750305;81;21449;-72
2021/03/17 10:25:14;;;;;;;7.03;5.53;;;;;;;13.39;45.51;98648.27;1756942;81;21201;-73
2021/03/17 10:27:48;;;;;;;6.47;5.30;;;;;;;13.40;45.44;98652.55;1752006;79;21032;-80
2021/03/17 10:30:30;;;;;;;6.00;4.97;;;;;;;13.41;45.42;98649.39;1740905;81;21155;-75
2021/03/17 10:33:01;;;;;;;9.55;5.17;;;;;;;13.41;45.39;98650.73;1743648;81;21147;-75
2021/03/17 10:35:30;;;;;;;7.25;5.80;;;;;;;13.41;45.40;98651.54;1740776;81;22144;-76
2021/03/17 10:38:00;;;;;;;7.03;4.67;;;;;;;13.43;45.36;98653.47;1759822;79;21196;-69
2021/03/17 10:40:29;;;;;;;6.17;4.72;;;;;;;13.43;45.38;98657.48;1751733;81;21168;-72
2021/03/17 10:43:01;;;;;;;6.65;4.70;;;;;;;13.45;45.32;98655.94;1742049;81;21250;-69
2021/03/17 10:46:09;;;;;;;7.80;5.10;;;;;;;13.50;45.30;98652.94;1826521;75;28267;-67
2021/03/17 10:48:42;;;;;;;5.83;4.47;;;;;;;13.47;45.24;98656.54;1781191;78;21171;-67
2021/03/17 10:51:09;;;;;;;6.92;4.30;;;;;;;13.47;45.22;98648.02;1773241;79;22081;-72
2021/03/17 10:53:37;;;;;;;8.58;5.20;;;;;;;13.47;45.20;98653.34;1782459;77;21150;-67
2021/03/17 10:56:05;;;;;;;6.95;5.15;;;;;;;13.47;45.15;98658.69;1754557;79;21447;-68
2021/03/17 10:58:38;;;;;;;8.88;6.05;;;;;;;13.47;45.19;98655.20;1783869;78;21164;-68
2021/03/17 11:01:05;;;;;;;5.58;4.25;;;;;;;13.47;45.19;98661.35;1798906;77;21047;-65
2021/03/17 11:06:20;;;;;;;6.80;4.22;;;;;;;13.52;45.15;98656.70;1757962;79;28632;-68
2021/03/17 11:09:07;;;;;;;7.00;4.85;;;;;;;13.47;45.08;98648.02;1770678;79;21165;-69
2021/03/17 11:11:51;;;;;;;8.93;5.05;;;;;;;13.48;45.17;98642.99;1752423;81;22244;-70
2021/03/17 11:14:35;;;;;;;6.62;5.25;;;;;;;13.48;45.14;98647.48;1742289;81;21179;-69
2021/03/17 11:17:08;;;;;;;8.23;4.75;;;;;;;13.47;45.13;98640.53;1754583;81;21171;-70
2021/03/17 11:19:37;;;;;;;7.47;4.70;;;;;;;13.48;45.10;98643.48;1776136;79;21189;-66
2021/03/17 11:22:05;;;;;;;6.62;4.50;;;;;;;13.47;45.06;98640.01;1799862;79;21153;-67
2021/03/17 11:24:32;;;;;;;5.50;4.80;;;;;;;13.49;45.05;98655.81;1773959;77;21288;-67
2021/03/17 11:27:00;;;;;;;7.50;4.85;;;;;;;13.49;45.05;98655.28;1788523;79;21655;-67
2021/03/17 11:29:29;;;;;;;5.97;4.37;;;;;;;13.49;45.02;98656.62;1794706;77;21249;-67
2021/03/17 11:32:07;;;;;;;10.00;4.75;;;;;;;13.47;45.04;98649.34;1785203;77;21165;-67
2021/03/17 11:34:35;;;;;;;5.90;5.12;;;;;;;13.50;44.96;98653.42;1798812;77;21137;-69
2021/03/17 11:37:02;;;;;;;7.00;4.60;;;;;;;13.49;44.92;98642.47;1810215;79;21395;-68
2021/03/17 11:39:30;;;;;;;6.85;4.50;;;;;;;13.48;44.91;98653.66;1779991;79;21210;-70
2021/03/17 11:41:58;;;;;;;7.25;4.50;;;;;;;13.48;44.89;98648.33;1801800;77;21218;-70
2021/03/17 11:44:27;;;;;;;5.08;4.47;;;;;;;13.49;44.90;98651.81;1783802;77;21186;-70
2021/03/17 11:46:54;;;;;;;8.48;4.62;;;;;;;13.49;44.88;98647.28;1799129;78;21173;-68
2021/03/17 11:49:24;;;;;;;7.20;4.28;;;;;;;13.41;44.83;98632.86;1786768;79;21194;-68
2021/03/17 11:51:51;;;;;;;7.00;4.45;;;;;;;13.49;44.76;98653.95;1790687;79;21138;-70
2021/03/17 11:54:19;;;;;;;6.15;4.60;;;;;;;13.49;44.75;98649.95;1775846;79;21126;-69
2021/03/17 11:56:48;;;;;;;7.90;4.37;;;;;;;13.48;44.72;98647.00;1787382;79;21126;-68
2021/03/17 11:59:16;;;;;;;8.70;4.60;;;;;;;13.48;44.70;98653.66;1800708;77;21159;-65
2021/03/17 12:01:44;;;;;;;5.37;4.40;;;;;;;13.48;44.76;98651.48;1785278;77;21405;-71
2021/03/17 12:04:13;;;;;;;5.90;5.12;;;;;;;13.48;44.71;98653.66;1772536;79;21195;-68
2021/03/17 12:06:40;;;;;;;9.05;4.33;;;;;;;13.49;44.70;98659.81;1747882;81;21186;-67
2021/03/17 12:09:08;;;;;;;5.92;4.70;;;;;;;13.49;44.68;98658.48;1752245;81;21193;-66
2021/03/17 12:11:40;;;;;;;5.85;4.80;;;;;;;13.47;44.69;98654.69;1761068;81;21127;-66